createdAt,value
2022-09-12T00:01:20.259Z,2.90
2022-09-12T00:03:47.205Z,2.97
2022-09-12T00:06:22.548Z,3.00
2022-09-12T00:08:49.840Z,3.00
2022-09-12T00:11:16.725Z,2.95
2022-09-12T00:13:43.773Z,3.13
2022-09-12T00:16:23.899Z,3.00
2022-09-12T00:18:51.383Z,2.72
2022-09-12T00:21:18.321Z,3.08
2022-09-12T00:23:45.355Z,2.90
2022-09-12T00:26:12.318Z,3.10
2022-09-12T00:28:39.665Z,2.85
2022-09-12T00:31:14.485Z,2.92
2022-09-12T00:33:41.563Z,3.00
2022-09-12T00:36:26.638Z,2.60
2022-09-12T00:38:54.671Z,2.92
2022-09-12T00:41:28.030Z,2.65
2022-09-12T00:43:59.773Z,3.00
2022-09-12T00:46:36.097Z,2.63
2022-09-12T00:49:13.419Z,3.30
2022-09-12T00:51:41.655Z,2.67
2022-09-12T00:54:11.938Z,2.78
2022-09-12T00:56:39.072Z,2.67
2022-09-12T00:59:10.889Z,2.90
2022-09-12T01:01:37.871Z,2.85
2022-09-12T01:04:04.754Z,2.63
2022-09-12T01:06:40.680Z,2.67
2022-09-12T01:09:08.155Z,2.97
2022-09-12T01:11:36.351Z,2.55
2022-09-12T01:14:05.938Z,2.72
2022-09-12T01:16:34.704Z,2.90
2022-09-12T01:19:38.680Z,2.70
2022-09-12T01:22:20.532Z,3.00
2022-09-12T01:24:58.874Z,3.00
2022-09-12T01:28:03.171Z,2.72
2022-09-12T01:30:52.357Z,2.75
2022-09-12T01:33:30.709Z,3.00
2022-09-12T01:36:31.591Z,2.58
2022-09-12T01:39:04.957Z,2.97
2022-09-12T01:41:31.839Z,2.75
2022-09-12T01:44:21.926Z,2.88
2022-09-12T01:46:53.080Z,2.88
2022-09-12T01:49:56.011Z,2.55
2022-09-12T01:52:28.378Z,3.00
2022-09-12T01:55:20.288Z,2.90
2022-09-12T01:58:04.561Z,2.83
2022-09-12T02:00:35.901Z,2.55
2022-09-12T02:03:10.447Z,2.70
2022-09-12T02:05:47.971Z,2.90
2022-09-12T02:08:17.908Z,2.72
2022-09-12T02:10:52.737Z,2.70
2022-09-12T02:13:23.404Z,3.03
2022-09-12T02:15:53.039Z,3.15
2022-09-12T02:18:19.884Z,3.30
2022-09-12T02:20:48.990Z,3.10
2022-09-12T02:23:21.809Z,3.03
2022-09-12T02:25:49.622Z,3.40
2022-09-12T02:28:25.493Z,3.15
2022-09-12T02:30:56.939Z,3.80
2022-09-12T02:33:27.684Z,3.30
2022-09-12T02:35:59.334Z,3.65
2022-09-12T02:38:44.424Z,3.30
2022-09-12T02:41:12.326Z,3.20
2022-09-12T02:43:39.357Z,3.83
2022-09-12T02:46:07.630Z,4.35
2022-09-12T02:48:35.013Z,3.70
2022-09-12T02:51:01.897Z,3.58
2022-09-12T02:53:28.808Z,3.70
2022-09-12T02:55:55.757Z,3.72
2022-09-12T02:58:25.419Z,3.55
2022-09-12T03:01:24.281Z,3.90
2022-09-12T03:04:05.895Z,3.60
2022-09-12T03:06:57.623Z,3.50
2022-09-12T03:09:44.128Z,3.60
2022-09-12T03:12:16.870Z,4.03
2022-09-12T03:15:03.778Z,3.95
2022-09-12T03:17:31.343Z,3.97
2022-09-12T03:20:06.881Z,3.58
2022-09-12T03:22:50.937Z,3.90
2022-09-12T03:25:32.290Z,3.90
2022-09-12T03:28:10.225Z,3.90
2022-09-12T03:30:41.665Z,4.00
2022-09-12T03:33:11.725Z,4.07
2022-09-12T03:35:38.664Z,4.55
2022-09-12T03:38:08.004Z,3.85
2022-09-12T03:40:35.923Z,3.92
2022-09-12T03:43:03.283Z,3.97
2022-09-12T03:45:30.407Z,3.60
2022-09-12T03:47:57.609Z,5.80
2022-09-12T03:50:24.582Z,6.60
2022-09-12T03:52:51.445Z,6.70
2022-09-12T03:55:18.766Z,6.05
2022-09-12T03:57:45.672Z,5.68
2022-09-12T04:00:17.642Z,4.93
2022-09-12T04:02:46.827Z,4.60
2022-09-12T04:05:13.874Z,5.60
2022-09-12T04:07:40.824Z,5.43
2022-09-12T04:10:09.642Z,4.82
2022-09-12T04:12:37.009Z,5.35
2022-09-12T04:15:04.574Z,5.40
2022-09-12T04:17:33.924Z,5.50
2022-09-12T04:20:01.153Z,5.47
2022-09-12T04:22:28.151Z,5.82
2022-09-12T04:24:55.388Z,5.65
2022-09-12T04:27:22.388Z,5.28
2022-09-12T04:29:49.244Z,5.20
2022-09-12T04:32:16.200Z,4.57
2022-09-12T04:34:43.290Z,4.50
2022-09-12T04:37:11.857Z,5.03
2022-09-12T04:39:39.045Z,5.40
2022-09-12T04:42:06.313Z,14.98
2022-09-12T04:44:33.231Z,5.45
2022-09-12T04:47:00.362Z,5.45
2022-09-12T04:49:27.238Z,5.13
2022-09-12T04:51:55.316Z,4.70
2022-09-12T04:54:22.358Z,4.40
2022-09-12T04:56:49.782Z,4.50
2022-09-12T04:59:20.823Z,4.50
2022-09-12T05:01:48.639Z,4.70
2022-09-12T05:04:15.862Z,4.65
2022-09-12T05:06:42.930Z,4.53
2022-09-12T05:09:11.829Z,4.85
2022-09-12T05:12:03.315Z,6.00
2022-09-12T05:14:27.134Z,4.95
2022-09-12T05:16:54.297Z,4.60
2022-09-12T05:19:21.326Z,4.85
2022-09-12T05:21:48.368Z,5.70
2022-09-12T05:24:15.440Z,4.60
2022-09-12T05:26:42.760Z,5.35
2022-09-12T05:29:09.806Z,5.10
2022-09-12T05:31:37.739Z,5.25
2022-09-12T05:34:07.147Z,5.47
2022-09-12T05:36:34.470Z,4.90
2022-09-12T05:39:01.618Z,5.07
2022-09-12T05:41:30.949Z,5.20
2022-09-12T05:43:59.563Z,5.22
2022-09-12T05:46:28.157Z,4.50
2022-09-12T05:48:56.548Z,4.28
2022-09-12T05:51:25.595Z,4.38
2022-09-12T05:54:00.142Z,4.40
2022-09-12T05:56:34.454Z,4.30
2022-09-12T05:59:03.438Z,4.60
2022-09-12T06:01:31.424Z,4.70
2022-09-12T06:04:01.039Z,4.13
2022-09-12T06:06:29.111Z,4.20
2022-09-12T06:09:00.866Z,4.97
2022-09-12T06:11:29.817Z,4.40
2022-09-12T06:13:58.017Z,4.03
2022-09-12T06:16:27.260Z,4.90
2022-09-12T06:18:55.895Z,4.40
2022-09-12T06:21:23.407Z,4.80
2022-09-12T06:23:50.822Z,4.72
2022-09-12T06:26:18.743Z,4.38
2022-09-12T06:28:45.756Z,5.07
2022-09-12T06:31:17.330Z,5.50
2022-09-12T06:33:46.401Z,5.55
2022-09-12T06:36:16.159Z,5.90
2022-09-12T06:38:43.276Z,5.20
2022-09-12T06:41:12.406Z,4.85
2022-09-12T06:43:40.116Z,4.60
2022-09-12T06:46:07.834Z,20.85
2022-09-12T06:48:38.327Z,6.82
2022-09-12T06:51:11.287Z,6.77
2022-09-12T06:53:38.440Z,6.53
2022-09-12T06:56:24.649Z,5.93
2022-09-12T06:58:51.782Z,5.43
2022-09-12T07:01:36.742Z,5.20
2022-09-12T07:04:04.219Z,4.72
2022-09-12T07:06:39.967Z,4.97
2022-09-12T07:09:08.881Z,5.32
2022-09-12T07:11:36.739Z,5.40
2022-09-12T07:14:05.032Z,4.75
2022-09-12T07:16:32.020Z,4.95
2022-09-12T07:19:00.287Z,4.65
2022-09-12T07:21:27.746Z,4.82
2022-09-12T07:24:00.945Z,4.47
2022-09-12T07:26:29.374Z,4.32
2022-09-12T07:29:12.888Z,4.00
2022-09-12T07:31:44.083Z,3.63
2022-09-12T07:34:11.285Z,3.65
2022-09-12T07:36:39.214Z,4.05
2022-09-12T07:39:06.169Z,3.90
2022-09-12T07:41:36.249Z,3.42
2022-09-12T07:44:03.518Z,2.80
2022-09-12T07:46:31.239Z,3.10
2022-09-12T07:48:58.728Z,2.90
2022-09-12T07:51:26.804Z,3.50
2022-09-12T07:53:53.951Z,3.17
2022-09-12T07:56:22.049Z,2.85
2022-09-12T07:58:51.018Z,3.00
2022-09-12T08:01:23.448Z,2.88
2022-09-12T08:03:59.472Z,3.00
2022-09-12T08:06:27.734Z,3.33
2022-09-12T08:08:55.566Z,5.05
2022-09-12T08:11:22.870Z,5.03
2022-09-12T08:13:55.412Z,3.17
2022-09-12T08:16:24.568Z,3.08
2022-09-12T08:18:51.768Z,3.22
2022-09-12T08:21:28.258Z,3.03
2022-09-12T08:24:00.874Z,3.20
2022-09-12T08:26:28.333Z,3.40
2022-09-12T08:28:55.303Z,2.90
2022-09-12T08:31:23.446Z,2.83
2022-09-12T08:33:50.597Z,3.10
2022-09-12T08:36:20.380Z,2.92
2022-09-12T08:38:48.727Z,2.80
2022-09-12T08:41:18.452Z,3.05
2022-09-12T08:43:54.541Z,3.00
2022-09-12T08:46:28.796Z,2.63
2022-09-12T08:48:56.011Z,2.55
2022-09-12T08:51:23.170Z,2.67
2022-09-12T08:53:50.775Z,2.83
2022-09-12T08:56:17.728Z,2.53
2022-09-12T08:58:45.485Z,2.47
2022-09-12T09:01:21.507Z,2.70
2022-09-12T09:04:01.642Z,2.55
2022-09-12T09:06:37.521Z,2.28
2022-09-12T09:09:07.253Z,2.10
2022-09-12T09:11:44.055Z,2.15
2022-09-12T09:14:50.779Z,2.10
2022-09-12T09:17:45.112Z,2.40
2022-09-12T09:20:30.233Z,2.43
2022-09-12T09:23:13.083Z,2.00
2022-09-12T09:25:44.774Z,1.98
2022-09-12T09:28:17.696Z,2.40
2022-09-12T09:30:45.184Z,2.55
2022-09-12T09:33:23.732Z,2.28
2022-09-12T09:35:56.997Z,2.30
2022-09-12T09:38:49.917Z,2.10
2022-09-12T09:41:48.877Z,2.20
2022-09-12T09:44:15.979Z,2.20
2022-09-12T09:46:42.991Z,2.47
2022-09-12T09:49:14.680Z,2.40
2022-09-12T09:51:41.882Z,2.20
2022-09-12T09:54:17.941Z,2.10
2022-09-12T09:56:45.019Z,2.08
2022-09-12T09:59:30.386Z,2.30
2022-09-12T10:02:04.043Z,1.80
2022-09-12T10:04:41.073Z,1.83
2022-09-12T10:07:18.966Z,1.65
2022-09-12T10:10:07.688Z,2.05
2022-09-12T10:12:34.742Z,1.80
2022-09-12T10:15:03.077Z,1.88
2022-09-12T10:17:42.517Z,1.75
2022-09-12T10:20:40.009Z,1.85
2022-09-12T10:23:19.169Z,1.73
2022-09-12T10:25:48.118Z,1.92
2022-09-12T10:28:29.612Z,1.70
2022-09-12T10:30:56.695Z,2.58
2022-09-12T10:33:24.531Z,1.95
2022-09-12T10:35:51.641Z,5.80
2022-09-12T10:38:28.580Z,2.33
2022-09-12T10:41:00.513Z,2.10
2022-09-12T10:43:31.213Z,2.95
2022-09-12T10:45:59.183Z,2.40
2022-09-12T10:48:30.408Z,2.30
2022-09-12T10:51:00.934Z,2.22
2022-09-12T10:53:41.648Z,2.22
2022-09-12T10:56:11.014Z,2.15
2022-09-12T10:59:05.956Z,2.42
2022-09-12T11:01:32.805Z,2.20
2022-09-12T11:04:20.656Z,2.53
2022-09-12T11:07:16.877Z,2.83
2022-09-12T11:10:19.327Z,2.45
2022-09-12T11:13:10.919Z,2.55
2022-09-12T11:16:10.295Z,1.90
2022-09-12T11:18:37.195Z,2.75
2022-09-12T11:21:23.155Z,2.42
2022-09-12T11:24:15.031Z,1.60
2022-09-12T11:26:51.222Z,1.77
2022-09-12T11:29:21.432Z,1.55
2022-09-12T11:31:51.403Z,2.13
2022-09-12T11:34:25.693Z,1.50
2022-09-12T11:39:37.770Z,1.80
2022-09-12T11:42:05.733Z,2.03
2022-09-12T11:44:40.261Z,1.98
2022-09-12T11:47:08.436Z,2.13
2022-09-12T11:49:38.331Z,2.38
2022-09-12T11:52:11.194Z,1.90
2022-09-12T11:54:41.933Z,1.67
2022-09-12T11:57:19.273Z,1.75
2022-09-12T11:59:54.380Z,2.20
2022-09-12T12:02:34.127Z,2.70
2022-09-12T12:05:20.755Z,2.20
2022-09-12T12:07:58.365Z,1.85
2022-09-12T12:10:39.879Z,1.80
2022-09-12T12:13:35.837Z,2.03
2022-09-12T12:16:16.632Z,2.45
2022-09-12T12:18:43.832Z,2.88
2022-09-12T12:21:32.076Z,2.30
2022-09-12T12:24:04.898Z,4.28
2022-09-12T12:27:00.847Z,5.13
2022-09-12T12:29:44.035Z,4.78
2022-09-12T12:32:11.221Z,3.95
2022-09-12T12:34:42.047Z,4.47
2022-09-12T12:37:25.760Z,3.83
2022-09-12T12:40:02.895Z,3.07
2022-09-12T12:42:32.805Z,2.92
2022-09-12T12:45:03.749Z,2.30
2022-09-12T12:47:40.261Z,2.40
2022-09-12T12:50:10.276Z,2.30
2022-09-12T12:52:53.929Z,2.70
2022-09-12T12:55:23.498Z,2.10
2022-09-12T12:58:14.711Z,2.05
2022-09-12T13:00:41.903Z,2.08
2022-09-12T13:03:29.065Z,2.95
2022-09-12T13:06:00.877Z,1.90
2022-09-12T13:08:32.566Z,2.00
2022-09-12T13:11:01.597Z,1.90
2022-09-12T13:13:51.941Z,1.90
2022-09-12T13:16:34.279Z,2.10
2022-09-12T13:19:17.457Z,1.98
2022-09-12T13:22:07.618Z,3.58
2022-09-12T13:24:35.694Z,3.15
2022-09-12T13:27:02.856Z,3.58
2022-09-12T13:29:29.737Z,2.10
2022-09-12T13:32:00.833Z,2.45
2022-09-12T13:34:31.383Z,1.75
2022-09-12T13:37:13.363Z,2.30
2022-09-12T13:40:01.335Z,2.67
2022-09-12T13:43:00.485Z,2.60
2022-09-12T13:45:27.548Z,2.60
2022-09-12T13:48:02.081Z,2.58
2022-09-12T13:50:32.212Z,2.40
2022-09-12T13:53:03.700Z,2.20
2022-09-12T13:55:39.360Z,2.05
2022-09-12T13:58:15.975Z,1.83
2022-09-12T14:00:42.819Z,1.90
2022-09-12T14:03:44.791Z,2.08
2022-09-12T14:06:12.724Z,2.25
2022-09-12T14:08:41.604Z,2.08
2022-09-12T14:11:11.983Z,1.85
2022-09-12T14:13:41.511Z,2.20
2022-09-12T14:16:10.290Z,1.55
2022-09-12T14:18:37.893Z,2.10
2022-09-12T14:21:12.808Z,2.00
2022-09-12T14:23:43.275Z,2.00
2022-09-12T14:26:12.400Z,2.22
2022-09-12T14:28:42.463Z,2.22
2022-09-12T14:31:15.953Z,1.70
2022-09-12T14:33:47.211Z,1.90
2022-09-12T14:36:24.663Z,2.10
2022-09-12T14:38:55.530Z,2.65
2022-09-12T14:41:27.980Z,2.50
2022-09-12T14:43:57.179Z,2.00
2022-09-12T14:46:32.349Z,2.30
2022-09-12T14:49:06.876Z,2.15
2022-09-12T14:54:01.611Z,1.88
2022-09-12T14:56:42.321Z,1.90
2022-09-12T14:59:35.235Z,2.28
2022-09-12T15:02:14.465Z,1.80
2022-09-12T15:04:42.158Z,2.25
2022-09-12T15:07:34.018Z,2.40
2022-09-12T15:10:02.465Z,2.33
2022-09-12T15:12:29.421Z,1.85
2022-09-12T15:15:18.955Z,2.35
2022-09-12T15:17:45.869Z,2.45
2022-09-12T15:20:13.461Z,1.85
2022-09-12T15:22:40.596Z,2.08
2022-09-12T15:25:07.995Z,2.10
2022-09-12T15:27:34.804Z,1.90
2022-09-12T15:30:02.547Z,2.20
2022-09-12T15:32:29.768Z,2.13
2022-09-12T15:34:57.165Z,2.10
2022-09-12T15:37:24.225Z,1.85
2022-09-12T15:39:51.301Z,2.00
2022-09-12T15:42:19.016Z,2.20
2022-09-12T15:44:45.963Z,1.88
2022-09-12T15:47:13.436Z,2.00
2022-09-12T15:49:40.743Z,1.77
2022-09-12T15:52:08.199Z,1.92
2022-09-12T15:54:36.241Z,2.10
2022-09-12T15:57:03.120Z,1.70
2022-09-12T15:59:31.204Z,2.25
2022-09-12T16:01:58.506Z,1.95
2022-09-12T16:04:27.285Z,2.40
2022-09-12T16:06:54.887Z,1.88
2022-09-12T16:09:22.042Z,2.10
2022-09-12T16:11:48.962Z,1.90
2022-09-12T16:14:16.955Z,1.83
2022-09-12T16:16:43.961Z,2.00
2022-09-12T16:19:10.948Z,2.08
2022-09-12T16:21:37.920Z,1.95
2022-09-12T16:24:04.945Z,1.73
2022-09-12T16:26:31.856Z,1.77
2022-09-12T16:28:59.050Z,1.67
2022-09-12T16:31:26.408Z,1.75
2022-09-12T16:33:53.452Z,2.03
2022-09-12T16:36:21.238Z,1.90
2022-09-12T16:38:49.470Z,1.95
2022-09-12T16:41:17.007Z,1.73
2022-09-12T16:43:44.067Z,1.90
2022-09-12T16:46:19.014Z,1.90
2022-09-12T16:48:52.352Z,1.80
2022-09-12T16:51:26.864Z,1.50
2022-09-12T16:53:54.540Z,1.80
2022-09-12T16:56:21.448Z,1.77
2022-09-12T16:58:48.363Z,1.48
2022-09-12T17:01:17.444Z,1.80
2022-09-12T17:03:44.307Z,1.92
2022-09-12T17:06:12.714Z,1.73
2022-09-12T17:08:41.318Z,1.58
2022-09-12T17:11:12.523Z,1.90
2022-09-12T17:14:00.589Z,1.70
2022-09-12T17:16:27.116Z,1.50
2022-09-12T17:18:54.070Z,1.73
2022-09-12T17:21:21.294Z,1.80
2022-09-12T17:23:48.394Z,1.70
2022-09-12T17:26:15.599Z,1.48
2022-09-12T17:28:42.535Z,1.65
2022-09-12T17:31:10.954Z,1.73
2022-09-12T17:33:39.086Z,1.70
2022-09-12T17:36:16.653Z,1.45
2022-09-12T17:38:44.493Z,1.58
2022-09-12T17:41:19.617Z,1.40
2022-09-12T17:43:51.354Z,1.52
2022-09-12T17:46:19.374Z,1.50
2022-09-12T17:48:54.149Z,1.25
2022-09-12T17:51:21.705Z,1.50
2022-09-12T17:53:48.686Z,1.80
2022-09-12T17:56:15.708Z,1.52
2022-09-12T17:58:42.576Z,1.40
2022-09-12T18:01:33.887Z,1.30
2022-09-12T18:04:01.511Z,1.40
2022-09-12T18:06:28.723Z,1.40
2022-09-12T18:08:55.743Z,1.48
2022-09-12T18:11:22.615Z,1.88
2022-09-12T18:13:49.548Z,1.40
2022-09-12T18:16:17.608Z,1.48
2022-09-12T18:18:44.553Z,1.33
2022-09-12T18:21:11.783Z,1.80
2022-09-12T18:23:38.738Z,1.52
2022-09-12T18:26:07.306Z,1.42
2022-09-12T18:28:38.300Z,1.50
2022-09-12T18:31:06.722Z,1.23
2022-09-12T18:33:34.022Z,1.58
2022-09-12T18:36:07.513Z,1.25
2022-09-12T18:38:34.367Z,1.48
2022-09-12T18:41:05.096Z,1.55
2022-09-12T18:43:32.139Z,1.30
2022-09-12T18:46:05.638Z,1.40
2022-09-12T18:48:32.940Z,1.43
2022-09-12T18:51:19.069Z,1.50
2022-09-12T18:53:56.375Z,1.33
2022-09-12T18:56:24.415Z,1.42
2022-09-12T18:58:52.952Z,1.25
2022-09-12T19:01:38.760Z,1.40
2022-09-12T19:04:07.757Z,1.52
2022-09-12T19:06:44.692Z,1.40
2022-09-12T19:09:12.320Z,1.42
2022-09-12T19:11:40.288Z,1.30
2022-09-12T19:14:07.784Z,1.60
2022-09-12T19:16:34.846Z,1.40
2022-09-12T19:19:02.672Z,1.70
2022-09-12T19:21:30.420Z,1.88
2022-09-12T19:24:01.625Z,1.45
2022-09-12T19:26:28.487Z,1.27
2022-09-12T19:28:55.622Z,1.50
2022-09-12T19:31:23.339Z,1.63
2022-09-12T19:33:50.548Z,1.48
2022-09-12T19:36:41.259Z,1.50
2022-09-12T19:39:05.821Z,1.60
2022-09-12T19:41:33.011Z,1.30
2022-09-12T19:43:59.894Z,1.48
2022-09-12T19:46:26.924Z,1.40
2022-09-12T19:48:54.129Z,1.70
2022-09-12T19:51:21.338Z,1.60
2022-09-12T19:53:50.200Z,1.60
2022-09-12T19:56:17.153Z,1.65
2022-09-12T19:58:45.374Z,1.60
2022-09-12T20:01:13.900Z,1.77
2022-09-12T20:03:41.212Z,1.60
2022-09-12T20:06:09.753Z,1.63
2022-09-12T20:08:37.834Z,1.60
2022-09-12T20:11:04.849Z,1.60
2022-09-12T20:13:31.707Z,1.70
2022-09-12T20:16:06.565Z,1.55
2022-09-12T20:18:33.644Z,1.60
2022-09-12T20:21:11.229Z,1.70
2022-09-12T20:23:38.165Z,1.60
2022-09-12T20:26:05.251Z,1.75
2022-09-12T20:28:32.310Z,1.92
2022-09-12T20:31:07.348Z,1.83
2022-09-12T20:33:34.408Z,1.70
2022-09-12T20:36:10.892Z,1.50
2022-09-12T20:38:37.947Z,1.67
2022-09-12T20:41:06.048Z,1.70
2022-09-12T20:43:32.909Z,1.50
2022-09-12T20:45:59.865Z,1.65
2022-09-12T20:48:26.936Z,1.70
2022-09-12T20:50:53.750Z,1.70
2022-09-12T20:53:20.953Z,1.90
2022-09-12T20:55:51.562Z,1.80
2022-09-12T20:58:19.347Z,1.80
2022-09-12T21:00:46.816Z,1.90
2022-09-12T21:03:14.493Z,1.70
2022-09-12T21:05:45.037Z,1.75
2022-09-12T21:08:12.139Z,1.85
2022-09-12T21:10:42.587Z,1.73
2022-09-12T21:13:10.435Z,1.80
2022-09-12T21:15:38.715Z,2.05
2022-09-12T21:18:05.743Z,1.60
2022-09-12T21:20:32.623Z,1.80
2022-09-12T21:22:59.730Z,1.92
2022-09-12T21:25:28.524Z,1.77
2022-09-12T21:27:55.410Z,1.88
2022-09-12T21:30:22.527Z,1.77
2022-09-12T21:32:49.342Z,1.63
2022-09-12T21:35:16.357Z,2.00
2022-09-12T21:37:43.320Z,1.60
2022-09-12T21:40:10.463Z,1.67
2022-09-12T21:42:37.377Z,1.67
2022-09-12T21:45:04.703Z,1.73
2022-09-12T21:47:31.507Z,1.83
2022-09-12T21:49:58.673Z,1.85
2022-09-12T21:52:25.731Z,1.90
2022-09-12T21:54:52.550Z,1.90
2022-09-12T21:57:19.468Z,1.92
2022-09-12T21:59:46.418Z,1.80
2022-09-12T22:02:13.844Z,1.90
2022-09-12T22:04:40.715Z,2.00
2022-09-12T22:07:07.962Z,1.70
2022-09-12T22:09:34.994Z,1.88
2022-09-12T22:12:02.421Z,1.88
2022-09-12T22:14:29.716Z,2.08
2022-09-12T22:16:56.915Z,1.77
2022-09-12T22:19:23.776Z,1.98
2022-09-12T22:22:09.321Z,1.90
2022-09-12T22:24:36.197Z,1.90
2022-09-12T22:27:04.658Z,1.98
2022-09-12T22:29:31.703Z,2.00
2022-09-12T22:31:59.145Z,1.95
2022-09-12T22:34:26.603Z,1.80
2022-09-12T22:36:53.480Z,2.10
2022-09-12T22:39:20.333Z,2.00
2022-09-12T22:41:47.188Z,2.10
2022-09-12T22:44:14.302Z,2.13
2022-09-12T22:46:41.392Z,1.90
2022-09-12T22:49:08.275Z,2.00
2022-09-12T22:51:35.370Z,2.20
2022-09-12T22:54:02.329Z,1.92
2022-09-12T22:56:29.254Z,2.05
2022-09-12T22:58:56.133Z,2.20
2022-09-12T23:01:23.983Z,2.25
2022-09-12T23:03:51.230Z,2.08
2022-09-12T23:06:18.167Z,1.80
2022-09-12T23:08:45.042Z,1.98
2022-09-12T23:11:14.006Z,2.00
2022-09-12T23:13:44.853Z,1.90
2022-09-12T23:16:22.789Z,1.83
2022-09-12T23:18:49.894Z,1.63
2022-09-12T23:21:17.956Z,2.10
2022-09-12T23:23:44.810Z,2.03
2022-09-12T23:26:17.313Z,1.80
2022-09-12T23:28:48.983Z,2.00
2022-09-12T23:31:17.152Z,1.77
2022-09-12T23:33:44.347Z,1.90
2022-09-12T23:36:14.389Z,1.85
2022-09-12T23:38:42.515Z,2.17
2022-09-12T23:41:09.501Z,2.20
2022-09-12T23:43:36.345Z,2.10
2022-09-12T23:46:04.609Z,2.08
2022-09-12T23:48:32.076Z,2.00
2022-09-12T23:50:59.247Z,1.70
2022-09-12T23:53:26.086Z,1.80
2022-09-12T23:55:52.942Z,2.10
2022-09-12T23:58:21.586Z,1.83
